createdAt,value
2019-03-29T12:04:30.323Z,17.60
2019-03-29T12:06:59.467Z,16.77
2019-03-29T12:09:28.811Z,15.70
2019-03-29T12:11:58.209Z,16.03
2019-03-29T12:14:27.374Z,15.57
2019-03-29T12:16:56.579Z,14.67
2019-03-29T12:19:25.776Z,14.07
2019-03-29T12:21:55.978Z,14.77
2019-03-29T12:24:25.122Z,13.17
2019-03-29T12:26:55.064Z,13.50
2019-03-29T12:29:24.302Z,13.83
2019-03-29T12:31:53.507Z,13.00
2019-03-29T12:34:22.682Z,13.37
2019-03-29T12:36:52.090Z,13.37
2019-03-29T12:39:21.204Z,12.50
2019-03-29T12:41:50.382Z,12.50
2019-03-29T12:44:19.570Z,13.17
2019-03-29T12:46:49.129Z,12.37
2019-03-29T12:49:18.335Z,12.60
2019-03-29T12:51:47.516Z,12.13
2019-03-29T12:54:16.833Z,12.20
2019-03-29T12:56:46.010Z,12.60
2019-03-29T12:59:15.231Z,12.77
2019-03-29T13:01:55.938Z,13.30
2019-03-29T13:04:25.092Z,14.83
2019-03-29T13:06:55.278Z,13.67
2019-03-29T13:09:25.421Z,13.70
2019-03-29T13:11:54.754Z,13.47
2019-03-29T13:14:23.884Z,13.17
2019-03-29T13:16:55.375Z,13.90
2019-03-29T13:19:24.722Z,15.33
2019-03-29T13:21:53.840Z,15.27
2019-03-29T13:24:23.051Z,14.47
2019-03-29T13:26:54.211Z,14.40
2019-03-29T13:29:23.431Z,14.53
2019-03-29T13:31:52.594Z,13.80
2019-03-29T13:34:22.052Z,14.30
2019-03-29T13:36:51.207Z,14.23
2019-03-29T13:39:20.398Z,13.50
2019-03-29T13:41:49.594Z,14.03
2019-03-29T13:44:24.068Z,16.20
2019-03-29T13:46:50.162Z,14.27
2019-03-29T13:49:19.330Z,14.97
2019-03-29T13:51:48.755Z,15.33
2019-03-29T13:54:17.946Z,16.63
2019-03-29T13:56:47.150Z,16.90
2019-03-29T13:59:16.840Z,17.13
2019-03-29T14:01:46.046Z,18.03
2019-03-29T14:04:15.260Z,17.27
2019-03-29T14:06:44.482Z,16.37
2019-03-29T14:09:13.621Z,17.97
2019-03-29T14:11:42.826Z,16.60
2019-03-29T14:14:12.510Z,18.17
2019-03-29T14:16:42.890Z,19.00
2019-03-29T14:19:12.257Z,18.53
2019-03-29T14:21:41.354Z,17.97
2019-03-29T14:24:10.634Z,20.13
